Ang'angxi, China
Current Conditions -  °F | °C
As of 9:00 AM on Saturday 25 Oct 2014 (Local Time) from ZYHB Reporting Station
Haze Haze  
Wind Chill: 37°   Ceiling: Unl
Heat Index: 41°   Visibility: 1.8mi
Dew Point: 37°   Wind: 7mph
Humidity: 87%   Direction: 360°N
Pressure: 29.85"   Gusts: NA
Location:  47.15°N, 123.8°E
Report Text: ZYHB 250100Z 36003MPS 3000 HZ SCT040 05/03 Q1011 NOSIG
Loading
Personal Weather Stations






























Interactive Weather Map
Tropical Storm Tracking
New forecast layout! Learn more

10-Day Weather Forecast

Advertisements
Track Severe Weather on mobile